Airport View

Enter AWOS ICAO identifier for current METAR.

ex. KFNL

KDYR 192056Z AUTO VRB03KT 10SM FEW040 34/25 A3000 RMK AO2 SLP162 6//// T03390250 56014 PNO $

19 Aug 2019 21:11

Frequency: 135.625

Phone: 731-287-0300

Other Area AWOS: KHKA - KM04 - KBYH - KUCY

TAF KMKL 191735Z 1918/2018 12004KT P6SM SCT040 FM192000 15005KT P6SM VCSH SCT040 BKN250 FM200000 VRB03KT P6SM FEW250 TEMPO 2010/2013 4SM BR FM201400 21004KT P6SM SCT035